createdAt,value
2019-01-30T00:01:29.158Z,-1.02
2019-01-30T00:03:58.910Z,-0.99
2019-01-30T00:06:28.692Z,-0.99
2019-01-30T00:08:58.400Z,-0.92
2019-01-30T00:11:28.178Z,-0.92
2019-01-30T00:13:57.934Z,-0.87
2019-01-30T00:16:27.681Z,-0.90
2019-01-30T00:18:57.497Z,-0.93
2019-01-30T00:21:27.194Z,-0.94
2019-01-30T00:23:57.055Z,-0.98
2019-01-30T00:26:26.727Z,-0.99
2019-01-30T00:28:56.470Z,-1.11
2019-01-30T00:31:26.410Z,-1.21
2019-01-30T00:33:56.130Z,-1.26
2019-01-30T00:36:25.968Z,-1.21
2019-01-30T00:38:56.247Z,-1.27
2019-01-30T00:41:26.160Z,-1.20
2019-01-30T00:43:56.014Z,-1.13
2019-01-30T00:46:25.753Z,-1.20
2019-01-30T00:48:55.469Z,-1.23
2019-01-30T00:51:25.236Z,-1.26
2019-01-30T00:53:55.044Z,-1.29
2019-01-30T00:56:24.854Z,-1.19
2019-01-30T00:58:54.802Z,-1.11
2019-01-30T01:01:24.716Z,-1.08
2019-01-30T01:03:54.692Z,-1.02
2019-01-30T01:06:24.361Z,-1.07
2019-01-30T01:08:54.214Z,-1.12
2019-01-30T01:11:24.124Z,-1.18
2019-01-30T01:13:54.079Z,-1.09
2019-01-30T01:16:24.066Z,-1.25
2019-01-30T01:18:53.786Z,-1.32
2019-01-30T01:21:23.498Z,-1.27
2019-01-30T01:23:53.317Z,-1.26
2019-01-30T01:26:23.212Z,-1.26
2019-01-30T01:28:52.938Z,-1.25
2019-01-30T01:31:22.748Z,-1.30
2019-01-30T01:33:52.559Z,-1.18
2019-01-30T01:36:22.430Z,-1.09
2019-01-30T01:38:52.465Z,-1.11
2019-01-30T01:41:22.326Z,-1.18
2019-01-30T01:43:52.143Z,-1.09
2019-01-30T01:46:21.857Z,-1.08
2019-01-30T01:48:51.959Z,-0.99
2019-01-30T01:51:22.095Z,-1.19
2019-01-30T01:53:52.015Z,-1.06
2019-01-30T01:56:21.794Z,-1.18
2019-01-30T01:58:51.679Z,-1.16
2019-01-30T02:01:21.324Z,-1.14
2019-01-30T02:03:51.174Z,-1.08
2019-01-30T02:06:20.836Z,-1.07
2019-01-30T02:08:50.709Z,-0.98
2019-01-30T02:11:20.543Z,-0.97
2019-01-30T02:13:50.204Z,-1.01
2019-01-30T02:16:19.967Z,-0.96
2019-01-30T02:18:49.791Z,-1.03
2019-01-30T02:21:19.660Z,-0.98
2019-01-30T02:23:49.471Z,-1.08
2019-01-30T02:26:19.183Z,-1.09
2019-01-30T02:28:48.978Z,-1.12
2019-01-30T02:31:18.743Z,-1.00
2019-01-30T02:33:48.415Z,-1.00
2019-01-30T02:36:18.115Z,-1.12
2019-01-30T02:38:48.910Z,-1.12
2019-01-30T02:41:18.697Z,-1.17
2019-01-30T02:43:54.923Z,-1.14
2019-01-30T02:46:24.694Z,-1.16
2019-01-30T02:48:54.620Z,-1.22
2019-01-30T02:51:24.413Z,-1.22
2019-01-30T02:53:54.477Z,-1.34
2019-01-30T02:56:24.349Z,-1.34
2019-01-30T02:58:54.598Z,-1.28
2019-01-30T03:01:24.428Z,-1.14
2019-01-30T03:03:54.217Z,-1.18
2019-01-30T03:06:23.858Z,-1.04
2019-01-30T03:08:53.638Z,-1.04
2019-01-30T03:11:25.278Z,-1.04
2019-01-30T03:13:55.584Z,-1.05
2019-01-30T03:16:25.966Z,-0.96
2019-01-30T03:18:56.067Z,-0.93
2019-01-30T03:21:26.397Z,-0.84
2019-01-30T03:23:56.544Z,-0.90
2019-01-30T03:26:26.389Z,-0.89
2019-01-30T03:28:56.235Z,-0.88
2019-01-30T03:31:26.052Z,-0.83
2019-01-30T03:33:55.843Z,-0.79
2019-01-30T03:36:25.661Z,-0.79
2019-01-30T03:38:55.751Z,-0.74
2019-01-30T03:41:25.540Z,-0.81
2019-01-30T03:43:55.650Z,-0.83
2019-01-30T03:46:25.412Z,-0.87
2019-01-30T03:48:55.047Z,-0.96
2019-01-30T03:51:24.915Z,-0.92
2019-01-30T03:53:54.727Z,-0.87
2019-01-30T03:56:24.372Z,-0.87
2019-01-30T03:58:54.116Z,-0.72
2019-01-30T04:01:26.719Z,-0.80
2019-01-30T04:03:55.571Z,-0.81
2019-01-30T04:06:25.254Z,-0.72
2019-01-30T04:08:55.063Z,-0.77
2019-01-30T04:11:34.565Z,-0.81
2019-01-30T04:14:04.361Z,-0.74
2019-01-30T04:16:34.107Z,-0.78
2019-01-30T04:19:03.835Z,-0.76
2019-01-30T04:21:39.904Z,-0.81
2019-01-30T04:24:09.772Z,-0.83
2019-01-30T04:26:39.569Z,-0.78
2019-01-30T04:29:09.360Z,-0.83
2019-01-30T04:31:39.081Z,-0.71
2019-01-30T04:34:08.688Z,-0.83
2019-01-30T04:36:38.477Z,-0.82
2019-01-30T04:39:08.284Z,-0.82
2019-01-30T04:41:38.265Z,-0.75
2019-01-30T04:44:08.086Z,-0.74
2019-01-30T04:46:37.964Z,-0.74
2019-01-30T04:49:08.445Z,-0.77
2019-01-30T04:51:38.286Z,-0.69
2019-01-30T04:54:07.998Z,-0.80
2019-01-30T04:56:37.873Z,-0.79
2019-01-30T04:59:07.724Z,-0.76
2019-01-30T05:01:49.248Z,-0.79
2019-01-30T05:04:09.156Z,-0.74
2019-01-30T05:06:38.894Z,-0.75
2019-01-30T05:09:09.223Z,-0.82
2019-01-30T05:11:38.851Z,-0.78
2019-01-30T05:14:08.693Z,-0.73
2019-01-30T05:16:38.436Z,-0.81
2019-01-30T05:19:08.172Z,-0.84
2019-01-30T05:21:38.073Z,-0.74
2019-01-30T05:24:07.891Z,-0.74
2019-01-30T05:26:38.140Z,-0.69
2019-01-30T05:29:08.621Z,-0.76
2019-01-30T05:31:38.403Z,-0.83
2019-01-30T05:34:10.172Z,-0.73
2019-01-30T05:36:42.296Z,-0.79
2019-01-30T05:39:12.422Z,-0.90
2019-01-30T05:41:42.284Z,-0.95
2019-01-30T05:44:12.081Z,-0.97
2019-01-30T05:46:41.680Z,-0.98
2019-01-30T05:49:11.460Z,-0.91
2019-01-30T05:51:41.241Z,-0.85
2019-01-30T05:54:10.985Z,-0.87
2019-01-30T05:56:40.743Z,-1.03
2019-01-30T05:59:11.063Z,-1.05
2019-01-30T06:01:42.045Z,-1.06
2019-01-30T06:04:23.502Z,-1.08
2019-01-30T06:06:55.905Z,-1.11
2019-01-30T06:09:25.897Z,-1.10
2019-01-30T06:11:55.943Z,-1.07
2019-01-30T06:14:37.223Z,-1.11
2019-01-30T06:17:09.785Z,-1.06
2019-01-30T06:19:40.297Z,-0.99
2019-01-30T06:22:16.708Z,-0.91
2019-01-30T06:24:46.967Z,-0.89
2019-01-30T06:27:17.684Z,-1.02
2019-01-30T06:29:47.976Z,-1.05
2019-01-30T06:32:21.872Z,-0.84
2019-01-30T06:34:50.178Z,-0.82
2019-01-30T06:37:20.704Z,-0.83
2019-01-30T06:39:51.457Z,-0.88
2019-01-30T06:42:21.835Z,-0.85
2019-01-30T06:44:52.106Z,-0.84
2019-01-30T06:47:22.554Z,-0.85
2019-01-30T06:49:52.785Z,-0.85
2019-01-30T06:52:23.966Z,-0.79
2019-01-30T06:54:54.947Z,-0.84
2019-01-30T06:57:25.875Z,-0.84
2019-01-30T06:59:56.103Z,-0.81
2019-01-30T07:02:32.391Z,-0.73
2019-01-30T07:04:59.803Z,-0.68
2019-01-30T07:07:30.302Z,-0.74
2019-01-30T07:10:00.827Z,-0.76
2019-01-30T07:12:31.282Z,-0.78
2019-01-30T07:15:01.942Z,-0.73
2019-01-30T07:17:32.092Z,-0.75
2019-01-30T07:20:02.110Z,-0.71
2019-01-30T07:22:33.293Z,-0.81
2019-01-30T07:25:04.093Z,-0.66
2019-01-30T07:27:36.649Z,-0.72
2019-01-30T07:30:12.574Z,-0.75
2019-01-30T07:32:42.627Z,-0.73
2019-01-30T07:35:12.397Z,-0.53
2019-01-30T07:37:42.542Z,-0.53
2019-01-30T07:40:14.817Z,-0.53
2019-01-30T07:42:44.755Z,-0.55
2019-01-30T07:45:17.348Z,-0.47
2019-01-30T07:47:47.051Z,-0.41
2019-01-30T07:50:16.678Z,-0.36
2019-01-30T07:52:46.523Z,-0.40
2019-01-30T07:55:17.109Z,-0.39
2019-01-30T07:57:47.008Z,-0.29
2019-01-30T08:00:25.364Z,-0.15
2019-01-30T08:02:55.148Z,-0.22
2019-01-30T08:05:25.004Z,-0.19
2019-01-30T08:07:54.980Z,-0.10
2019-01-30T08:10:24.816Z,-0.03
2019-01-30T08:12:54.734Z,-0.14
2019-01-30T08:15:25.026Z,0.02
2019-01-30T08:17:55.112Z,0.04
2019-01-30T08:20:24.849Z,0.04
2019-01-30T08:22:54.823Z,0.22
2019-01-30T08:25:25.030Z,0.23
2019-01-30T08:27:54.955Z,0.14
2019-01-30T08:30:27.484Z,0.12
2019-01-30T08:33:04.881Z,0.26
2019-01-30T08:35:30.691Z,0.23
2019-01-30T08:38:00.658Z,0.28
2019-01-30T08:40:30.366Z,0.39
2019-01-30T08:43:00.150Z,0.36
2019-01-30T08:45:30.873Z,0.42
2019-01-30T08:48:01.066Z,0.48
2019-01-30T08:50:31.235Z,0.47
2019-01-30T08:53:01.140Z,0.50
2019-01-30T08:55:31.234Z,0.58
2019-01-30T08:58:01.177Z,0.56
2019-01-30T09:00:31.216Z,0.59
2019-01-30T09:03:01.337Z,0.65
2019-01-30T09:05:31.234Z,0.73
2019-01-30T09:08:01.184Z,0.73
2019-01-30T09:10:31.134Z,0.85
2019-01-30T09:13:01.538Z,0.77
2019-01-30T09:15:31.782Z,0.84
2019-01-30T09:18:01.894Z,0.96
2019-01-30T09:20:32.366Z,0.98
2019-01-30T09:23:02.173Z,0.91
2019-01-30T09:25:32.549Z,0.89
2019-01-30T09:28:02.849Z,0.95
2019-01-30T09:30:36.187Z,0.98
2019-01-30T09:33:07.764Z,1.11
2019-01-30T09:35:37.940Z,1.14
2019-01-30T09:38:07.652Z,1.18
2019-01-30T09:40:37.343Z,1.27
2019-01-30T09:43:07.424Z,1.26
2019-01-30T09:45:37.792Z,1.30
2019-01-30T09:48:07.669Z,1.25
2019-01-30T09:50:37.460Z,1.34
2019-01-30T09:53:07.339Z,1.29
2019-01-30T09:55:37.158Z,1.36
2019-01-30T09:58:07.171Z,1.34
2019-01-30T10:00:38.515Z,1.39
2019-01-30T10:03:08.432Z,1.37
2019-01-30T10:05:38.565Z,1.36
2019-01-30T10:08:08.323Z,1.53
2019-01-30T10:10:42.040Z,1.54
2019-01-30T10:13:12.103Z,1.46
2019-01-30T10:15:43.946Z,1.54
2019-01-30T10:18:14.856Z,1.60
2019-01-30T10:20:48.448Z,1.65
2019-01-30T10:23:18.332Z,1.74
2019-01-30T10:25:48.121Z,1.90
2019-01-30T10:28:17.997Z,1.89
2019-01-30T10:30:48.494Z,1.94
2019-01-30T10:33:19.851Z,2.10
2019-01-30T10:35:49.904Z,2.04
2019-01-30T10:38:19.671Z,2.10
2019-01-30T10:40:50.221Z,2.21
2019-01-30T10:43:20.180Z,2.21
2019-01-30T10:45:50.335Z,2.24
2019-01-30T10:48:20.313Z,2.25
2019-01-30T10:50:50.296Z,2.39
2019-01-30T10:53:20.074Z,2.32
2019-01-30T10:55:49.703Z,2.33
2019-01-30T10:58:19.720Z,2.50
2019-01-30T11:00:51.106Z,2.54
2019-01-30T11:03:21.113Z,2.51
2019-01-30T11:05:50.938Z,2.52
2019-01-30T11:08:20.994Z,2.56
2019-01-30T11:10:51.108Z,2.38
2019-01-30T11:13:21.193Z,2.40
2019-01-30T11:15:51.272Z,2.34
2019-01-30T11:18:21.698Z,2.32
2019-01-30T11:20:51.562Z,2.18
2019-01-30T11:23:21.284Z,2.24
2019-01-30T11:25:51.120Z,2.22
2019-01-30T11:28:21.282Z,2.19
2019-01-30T11:30:50.970Z,2.25
2019-01-30T11:33:21.421Z,2.28
2019-01-30T11:35:51.356Z,2.22
2019-01-30T11:38:21.310Z,2.27
2019-01-30T11:40:51.267Z,2.28
2019-01-30T11:43:20.974Z,2.41
2019-01-30T11:45:50.942Z,2.33
2019-01-30T11:48:20.854Z,2.42
2019-01-30T11:50:50.689Z,2.45
2019-01-30T11:53:20.527Z,2.44
2019-01-30T11:55:50.581Z,2.45
2019-01-30T11:58:20.195Z,2.49
2019-01-30T12:00:51.973Z,2.39
2019-01-30T12:03:21.825Z,2.47
2019-01-30T12:05:51.698Z,2.48
2019-01-30T12:08:21.806Z,2.48
2019-01-30T12:10:51.782Z,2.50
2019-01-30T12:13:21.635Z,2.60
2019-01-30T12:15:51.472Z,2.50
2019-01-30T12:18:21.634Z,2.50
2019-01-30T12:20:51.913Z,2.52
2019-01-30T12:23:22.043Z,2.51
2019-01-30T12:25:52.413Z,2.60
2019-01-30T12:28:22.438Z,2.49
2019-01-30T12:30:52.344Z,2.58
2019-01-30T12:33:22.131Z,2.66
2019-01-30T12:35:52.065Z,2.74
2019-01-30T12:38:21.910Z,2.74
2019-01-30T12:40:51.756Z,2.81
2019-01-30T12:43:21.990Z,2.88
2019-01-30T12:45:52.075Z,2.86
2019-01-30T12:48:21.876Z,3.01
2019-01-30T12:50:51.793Z,3.04
2019-01-30T12:53:21.690Z,3.02
2019-01-30T12:55:51.564Z,3.13
2019-01-30T12:58:21.861Z,3.12
2019-01-30T13:00:53.836Z,3.00
2019-01-30T13:03:23.969Z,2.94
2019-01-30T13:05:54.154Z,2.73
2019-01-30T13:08:24.080Z,2.78
2019-01-30T13:10:54.042Z,2.69
2019-01-30T13:13:23.902Z,2.78
2019-01-30T13:15:53.991Z,2.80
2019-01-30T13:18:23.831Z,2.66
2019-01-30T13:20:54.003Z,2.71
2019-01-30T13:23:24.305Z,2.82
2019-01-30T13:25:54.345Z,2.91
2019-01-30T13:28:24.187Z,2.90
2019-01-30T13:30:53.986Z,2.83
2019-01-30T13:33:23.885Z,2.89
2019-01-30T13:35:53.969Z,2.86
2019-01-30T13:38:23.879Z,2.84
2019-01-30T13:40:53.894Z,2.88
2019-01-30T13:43:23.724Z,2.93
2019-01-30T13:45:53.546Z,2.75
2019-01-30T13:48:23.408Z,2.83
2019-01-30T13:50:53.776Z,2.82
2019-01-30T13:53:23.600Z,2.74
2019-01-30T13:55:53.467Z,2.67
2019-01-30T13:58:23.234Z,2.59
2019-01-30T14:00:52.999Z,2.69
2019-01-30T14:03:23.097Z,2.60
2019-01-30T14:05:52.943Z,2.64
2019-01-30T14:08:22.550Z,2.60
2019-01-30T14:10:52.615Z,2.54
2019-01-30T14:13:22.627Z,2.52
2019-01-30T14:15:52.648Z,2.54
2019-01-30T14:18:27.171Z,2.54
2019-01-30T14:20:57.178Z,2.62
2019-01-30T14:23:27.283Z,2.66
2019-01-30T14:25:57.164Z,2.68
2019-01-30T14:28:26.975Z,2.56
2019-01-30T14:30:56.784Z,2.53
2019-01-30T14:33:26.790Z,2.60
2019-01-30T14:35:57.473Z,2.57
2019-01-30T14:38:27.174Z,2.62
2019-01-30T14:40:57.288Z,2.58
2019-01-30T14:43:27.411Z,2.60
2019-01-30T14:45:57.371Z,2.46
2019-01-30T14:48:26.975Z,2.44
2019-01-30T14:50:56.802Z,2.45
2019-01-30T14:53:26.949Z,2.39
2019-01-30T14:55:56.696Z,2.27
2019-01-30T14:58:26.534Z,2.30
2019-01-30T15:00:56.484Z,2.32
2019-01-30T15:03:26.480Z,2.31
2019-01-30T15:05:56.609Z,2.23
2019-01-30T15:08:26.543Z,2.23
2019-01-30T15:10:56.433Z,2.16
2019-01-30T15:13:26.583Z,2.11
2019-01-30T15:15:56.598Z,2.13
2019-01-30T15:18:26.624Z,2.14
2019-01-30T15:20:56.599Z,2.12
2019-01-30T15:23:28.531Z,2.12
2019-01-30T15:25:58.570Z,2.03
2019-01-30T15:28:28.863Z,2.02
2019-01-30T15:30:59.097Z,2.02
2019-01-30T15:33:29.162Z,1.96
2019-01-30T15:35:59.124Z,1.96
2019-01-30T15:38:29.346Z,1.96
2019-01-30T15:40:59.187Z,2.00
2019-01-30T15:43:28.996Z,2.02
2019-01-30T15:45:58.885Z,1.98
2019-01-30T15:48:28.914Z,1.90
2019-01-30T15:50:59.167Z,1.87
2019-01-30T15:53:29.240Z,1.87
2019-01-30T15:55:59.157Z,1.93
2019-01-30T15:58:28.866Z,1.86
2019-01-30T16:01:02.046Z,1.75
2019-01-30T16:03:31.769Z,1.82
2019-01-30T16:06:01.829Z,1.84
2019-01-30T16:08:31.597Z,1.79
2019-01-30T16:11:01.405Z,1.79
2019-01-30T16:13:31.805Z,1.70
2019-01-30T16:16:03.499Z,1.73
2019-01-30T16:18:33.316Z,1.75
2019-01-30T16:21:03.184Z,1.66
2019-01-30T16:23:32.994Z,1.72
2019-01-30T16:26:03.209Z,1.67
2019-01-30T16:28:33.129Z,1.69
2019-01-30T16:31:02.940Z,1.66
2019-01-30T16:33:32.726Z,1.67
2019-01-30T16:36:02.536Z,1.62
2019-01-30T16:38:32.189Z,1.60
2019-01-30T16:41:05.197Z,1.54
2019-01-30T16:43:35.065Z,1.57
2019-01-30T16:46:04.855Z,1.60
2019-01-30T16:48:34.706Z,1.63
2019-01-30T16:51:04.508Z,1.65
2019-01-30T16:53:34.506Z,1.61
2019-01-30T16:56:04.209Z,1.64
2019-01-30T16:58:36.453Z,1.68
2019-01-30T17:01:06.331Z,1.63
2019-01-30T17:03:36.140Z,1.63
2019-01-30T17:06:07.426Z,1.73
2019-01-30T17:08:37.628Z,1.75
2019-01-30T17:11:07.490Z,1.69
2019-01-30T17:13:37.330Z,1.71
2019-01-30T17:16:07.165Z,1.73
2019-01-30T17:18:36.953Z,1.71
2019-01-30T17:21:07.018Z,1.76
2019-01-30T17:23:38.063Z,1.83
2019-01-30T17:26:07.776Z,1.74
2019-01-30T17:28:37.665Z,1.75
2019-01-30T17:31:07.810Z,1.76
2019-01-30T17:33:37.580Z,1.69
2019-01-30T17:36:17.873Z,1.81
2019-01-30T17:38:38.891Z,1.76
2019-01-30T17:41:08.890Z,1.81
2019-01-30T17:43:38.674Z,1.72
2019-01-30T17:46:08.555Z,1.75
2019-01-30T17:48:38.604Z,1.68
2019-01-30T17:51:08.334Z,1.58
2019-01-30T17:53:38.126Z,1.76
2019-01-30T17:56:08.027Z,1.69
2019-01-30T17:58:38.028Z,1.74
2019-01-30T18:01:07.775Z,1.67
2019-01-30T18:03:37.490Z,1.76
2019-01-30T18:06:10.036Z,1.69
2019-01-30T18:08:40.021Z,1.71
2019-01-30T18:11:10.030Z,1.79
2019-01-30T18:13:39.760Z,1.70
2019-01-30T18:16:09.556Z,1.74
2019-01-30T18:18:39.895Z,1.66
2019-01-30T18:21:09.733Z,1.78
2019-01-30T18:23:39.879Z,1.67
2019-01-30T18:26:10.168Z,1.76
2019-01-30T18:28:40.276Z,1.73
2019-01-30T18:31:10.213Z,1.70
2019-01-30T18:33:41.256Z,1.65
2019-01-30T18:36:11.347Z,1.68
2019-01-30T18:38:42.111Z,1.63
2019-01-30T18:41:13.227Z,1.60
2019-01-30T18:43:45.481Z,1.68
2019-01-30T18:46:14.709Z,1.64
2019-01-30T18:48:44.372Z,1.63
2019-01-30T18:51:15.392Z,1.66
2019-01-30T18:53:45.240Z,1.64
2019-01-30T18:56:15.065Z,1.57
2019-01-30T18:58:45.422Z,1.62
2019-01-30T19:01:15.809Z,1.58
2019-01-30T19:03:45.758Z,1.54
2019-01-30T19:06:15.516Z,1.60
2019-01-30T19:08:45.461Z,1.62
2019-01-30T19:11:15.672Z,1.57
2019-01-30T19:13:45.821Z,1.48
2019-01-30T19:16:16.609Z,1.59
2019-01-30T19:18:48.971Z,1.48
2019-01-30T19:21:18.519Z,1.39
2019-01-30T19:23:48.440Z,1.46
2019-01-30T19:26:18.322Z,1.52
2019-01-30T19:28:48.554Z,1.35
2019-01-30T19:31:18.525Z,1.39
2019-01-30T19:33:49.415Z,1.45
2019-01-30T19:36:19.844Z,1.38
2019-01-30T19:38:49.984Z,1.37
2019-01-30T19:41:19.944Z,1.36
2019-01-30T19:43:53.678Z,1.40
2019-01-30T19:46:23.622Z,1.37
2019-01-30T19:48:53.651Z,1.35
2019-01-30T19:51:23.770Z,1.32
2019-01-30T19:53:54.462Z,1.33
2019-01-30T19:56:24.761Z,1.36
2019-01-30T19:58:55.207Z,1.35
2019-01-30T20:01:35.690Z,1.33
2019-01-30T20:03:57.086Z,1.44
2019-01-30T20:06:27.000Z,1.42
2019-01-30T20:08:56.818Z,1.39
2019-01-30T20:11:26.867Z,1.37
2019-01-30T20:13:56.949Z,1.28
2019-01-30T20:16:26.912Z,1.33
2019-01-30T20:18:56.712Z,1.36
2019-01-30T20:21:29.428Z,1.37
2019-01-30T20:27:13.289Z,1.40
2019-01-30T20:29:43.445Z,1.34
2019-01-30T20:32:13.268Z,1.41
2019-01-30T20:34:46.650Z,1.43
2019-01-30T20:37:25.980Z,1.40
2019-01-30T20:39:49.620Z,1.37
2019-01-30T20:42:19.644Z,1.39
2019-01-30T20:44:51.657Z,1.34
2019-01-30T20:47:21.348Z,1.33
2019-01-30T20:49:51.620Z,1.13
2019-01-30T20:52:21.353Z,1.10
2019-01-30T20:54:59.638Z,0.97
2019-01-30T20:57:23.894Z,0.96
2019-01-30T20:59:53.843Z,0.85
2019-01-30T21:02:23.694Z,0.79
2019-01-30T21:04:53.481Z,0.81
2019-01-30T21:07:23.370Z,0.80
2019-01-30T21:09:53.884Z,0.76
2019-01-30T21:12:24.335Z,0.82
2019-01-30T21:14:54.319Z,0.76
2019-01-30T21:17:24.923Z,0.73
2019-01-30T21:19:54.724Z,0.75
2019-01-30T21:22:24.652Z,0.81
2019-01-30T21:24:54.750Z,0.73
2019-01-30T21:27:25.631Z,0.76
2019-01-30T21:29:55.719Z,0.70
2019-01-30T21:32:25.687Z,0.75
2019-01-30T21:34:55.375Z,0.75
2019-01-30T21:37:25.342Z,0.76
2019-01-30T21:39:55.116Z,0.81
2019-01-30T21:42:24.801Z,0.75
2019-01-30T21:44:55.752Z,0.79
2019-01-30T21:47:25.958Z,0.77
2019-01-30T21:49:55.785Z,0.78
2019-01-30T21:52:25.658Z,0.82
2019-01-30T21:54:55.435Z,0.71
2019-01-30T21:57:25.178Z,0.74
2019-01-30T21:59:54.918Z,0.75
2019-01-30T22:02:24.942Z,0.66
2019-01-30T22:04:54.989Z,0.68
2019-01-30T22:07:24.784Z,0.78
2019-01-30T22:09:54.539Z,0.65
2019-01-30T22:12:24.326Z,0.65
2019-01-30T22:14:54.275Z,0.58
2019-01-30T22:17:38.491Z,0.62
2019-01-30T22:20:26.928Z,0.63
2019-01-30T22:23:13.287Z,0.62
2019-01-30T22:25:59.246Z,0.63
2019-01-30T22:28:45.859Z,0.58
2019-01-30T22:31:31.315Z,0.51
2019-01-30T22:34:14.816Z,0.54
2019-01-30T22:37:07.080Z,0.64
2019-01-30T22:39:48.380Z,0.62
2019-01-30T22:42:27.258Z,0.57
2019-01-30T22:45:02.662Z,0.58
2019-01-30T22:47:37.220Z,0.59
2019-01-30T22:50:10.197Z,0.55
2019-01-30T22:52:40.086Z,0.60
2019-01-30T22:55:12.030Z,0.60
2019-01-30T22:57:41.896Z,0.59
2019-01-30T23:00:53.112Z,0.73
2019-01-30T23:03:28.481Z,0.66
2019-01-30T23:06:16.888Z,0.75
2019-01-30T23:08:52.815Z,0.74
2019-01-30T23:11:42.362Z,0.71
2019-01-30T23:14:12.135Z,0.72
2019-01-30T23:17:01.787Z,0.74
2019-01-30T23:19:46.210Z,0.77
2019-01-30T23:22:37.319Z,0.81
2019-01-30T23:25:27.328Z,0.86
2019-01-30T23:28:01.227Z,0.84
2019-01-30T23:30:52.707Z,0.82
2019-01-30T23:33:34.946Z,0.89
2019-01-30T23:36:11.065Z,0.94
2019-01-30T23:38:50.007Z,0.88
2019-01-30T23:41:28.835Z,0.89
2019-01-30T23:44:02.096Z,1.01
2019-01-30T23:47:09.634Z,0.90
2019-01-30T23:49:45.453Z,0.92
2019-01-30T23:52:48.424Z,1.00
2019-01-30T23:55:42.681Z,0.99
2019-01-30T23:58:32.111Z,0.95
